sensor_id;sensor_type;location;lat;lon;timestamp;temperature;humidity
22635;DHT22;11484;50.858;4.384;2024-01-30T00:02:16;12.50;99.90
22635;DHT22;11484;50.858;4.384;2024-01-30T00:04:42;12.40;99.90
22635;DHT22;11484;50.858;4.384;2024-01-30T00:07:08;12.50;99.90
22635;DHT22;11484;50.858;4.384;2024-01-30T00:09:33;12.50;99.90
22635;DHT22;11484;50.858;4.384;2024-01-30T00:11:59;12.40;99.90
22635;DHT22;11484;50.858;4.384;2024-01-30T00:14:25;12.40;99.90
22635;DHT22;11484;50.858;4.384;2024-01-30T00:16:51;12.30;99.90
22635;DHT22;11484;50.858;4.384;2024-01-30T00:19:17;12.30;99.90
22635;DHT22;11484;50.858;4.384;2024-01-30T00:21:43;12.40;99.90
22635;DHT22;11484;50.858;4.384;2024-01-30T00:24:09;12.40;99.90
22635;DHT22;11484;50.858;4.384;2024-01-30T00:26:34;12.40;99.90
22635;DHT22;11484;50.858;4.384;2024-01-30T00:29:00;12.40;99.90
22635;DHT22;11484;50.858;4.384;2024-01-30T00:31:26;12.40;99.90
22635;DHT22;11484;50.858;4.384;2024-01-30T00:33:52;12.40;99.90
22635;DHT22;11484;50.858;4.384;2024-01-30T00:36:17;12.50;99.90
22635;DHT22;11484;50.858;4.384;2024-01-30T00:38:43;12.50;99.90
22635;DHT22;11484;50.858;4.384;2024-01-30T00:41:09;12.50;99.90
22635;DHT22;11484;50.858;4.384;2024-01-30T00:43:35;12.60;99.90
22635;DHT22;11484;50.858;4.384;2024-01-30T00:46:01;12.60;99.90
22635;DHT22;11484;50.858;4.384;2024-01-30T00:48:27;12.60;99.90
22635;DHT22;11484;50.858;4.384;2024-01-30T00:50:53;12.60;99.90
22635;DHT22;11484;50.858;4.384;2024-01-30T00:53:18;12.70;99.90
22635;DHT22;11484;50.858;4.384;2024-01-30T00:55:44;12.70;99.90
22635;DHT22;11484;50.858;4.384;2024-01-30T00:58:10;12.60;99.90
22635;DHT22;11484;50.858;4.384;2024-01-30T01:00:35;12.60;99.90
22635;DHT22;11484;50.858;4.384;2024-01-30T01:03:01;12.60;99.90
22635;DHT22;11484;50.858;4.384;2024-01-30T01:05:27;12.60;99.90
22635;DHT22;11484;50.858;4.384;2024-01-30T01:07:53;12.70;99.90
22635;DHT22;11484;50.858;4.384;2024-01-30T01:10:19;12.70;99.90
22635;DHT22;11484;50.858;4.384;2024-01-30T01:12:46;12.60;99.90
22635;DHT22;11484;50.858;4.384;2024-01-30T01:15:12;12.60;99.90
22635;DHT22;11484;50.858;4.384;2024-01-30T01:17:39;12.70;99.90
22635;DHT22;11484;50.858;4.384;2024-01-30T01:20:09;12.60;99.90
22635;DHT22;11484;50.858;4.384;2024-01-30T01:22:36;12.60;99.90
22635;DHT22;11484;50.858;4.384;2024-01-30T01:25:04;12.70;99.90
22635;DHT22;11484;50.858;4.384;2024-01-30T01:27:32;12.70;99.90
22635;DHT22;11484;50.858;4.384;2024-01-30T01:29:59;12.70;99.90
22635;DHT22;11484;50.858;4.384;2024-01-30T01:32:28;12.70;99.90
22635;DHT22;11484;50.858;4.384;2024-01-30T01:34:54;12.70;99.90
22635;DHT22;11484;50.858;4.384;2024-01-30T01:37:20;12.70;99.90
22635;DHT22;11484;50.858;4.384;2024-01-30T01:39:47;12.70;99.90
22635;DHT22;11484;50.858;4.384;2024-01-30T01:42:13;12.70;99.90
22635;DHT22;11484;50.858;4.384;2024-01-30T01:44:38;12.80;99.90
22635;DHT22;11484;50.858;4.384;2024-01-30T01:47:04;12.80;99.90
22635;DHT22;11484;50.858;4.384;2024-01-30T01:49:30;12.80;99.90
22635;DHT22;11484;50.858;4.384;2024-01-30T01:51:56;12.80;99.90
22635;DHT22;11484;50.858;4.384;2024-01-30T01:54:27;12.90;99.90
22635;DHT22;11484;50.858;4.384;2024-01-30T01:56:53;12.90;99.90
22635;DHT22;11484;50.858;4.384;2024-01-30T01:59:20;12.90;99.90
22635;DHT22;11484;50.858;4.384;2024-01-30T02:01:47;12.90;99.90
22635;DHT22;11484;50.858;4.384;2024-01-30T02:04:16;12.90;99.90
22635;DHT22;11484;50.858;4.384;2024-01-30T02:06:43;13.00;99.90
22635;DHT22;11484;50.858;4.384;2024-01-30T02:09:09;13.00;99.90
22635;DHT22;11484;50.858;4.384;2024-01-30T02:11:35;13.00;99.90
22635;DHT22;11484;50.858;4.384;2024-01-30T02:14:04;13.00;99.90
22635;DHT22;11484;50.858;4.384;2024-01-30T02:16:33;13.00;99.90
22635;DHT22;11484;50.858;4.384;2024-01-30T02:18:59;13.00;99.90
22635;DHT22;11484;50.858;4.384;2024-01-30T02:21:25;13.00;99.90
22635;DHT22;11484;50.858;4.384;2024-01-30T02:23:51;12.90;99.90
22635;DHT22;11484;50.858;4.384;2024-01-30T02:26:17;12.90;99.90
22635;DHT22;11484;50.858;4.384;2024-01-30T02:28:43;12.80;99.90
22635;DHT22;11484;50.858;4.384;2024-01-30T02:31:09;12.80;99.90
22635;DHT22;11484;50.858;4.384;2024-01-30T02:33:35;12.80;99.90
22635;DHT22;11484;50.858;4.384;2024-01-30T02:36:04;12.80;99.90
22635;DHT22;11484;50.858;4.384;2024-01-30T02:38:29;12.90;99.90
22635;DHT22;11484;50.858;4.384;2024-01-30T02:40:55;12.90;99.90
22635;DHT22;11484;50.858;4.384;2024-01-30T02:43:22;12.90;99.90
22635;DHT22;11484;50.858;4.384;2024-01-30T02:45:50;12.90;99.90
22635;DHT22;11484;50.858;4.384;2024-01-30T02:48:16;12.90;99.90
22635;DHT22;11484;50.858;4.384;2024-01-30T02:50:42;12.90;99.90
22635;DHT22;11484;50.858;4.384;2024-01-30T02:53:08;12.90;99.90
22635;DHT22;11484;50.858;4.384;2024-01-30T02:55:33;12.90;99.90
22635;DHT22;11484;50.858;4.384;2024-01-30T02:57:59;12.90;99.90
22635;DHT22;11484;50.858;4.384;2024-01-30T03:00:25;12.90;99.90
22635;DHT22;11484;50.858;4.384;2024-01-30T03:02:50;12.80;99.90
22635;DHT22;11484;50.858;4.384;2024-01-30T03:05:16;12.80;99.90
22635;DHT22;11484;50.858;4.384;2024-01-30T03:07:42;12.80;99.90
22635;DHT22;11484;50.858;4.384;2024-01-30T03:10:08;12.80;99.90
22635;DHT22;11484;50.858;4.384;2024-01-30T03:12:33;12.90;99.90
22635;DHT22;11484;50.858;4.384;2024-01-30T03:14:59;12.80;99.90
22635;DHT22;11484;50.858;4.384;2024-01-30T03:17:25;13.00;99.90
22635;DHT22;11484;50.858;4.384;2024-01-30T03:19:51;13.00;99.90
22635;DHT22;11484;50.858;4.384;2024-01-30T03:22:17;13.00;99.90
22635;DHT22;11484;50.858;4.384;2024-01-30T03:24:42;12.90;99.90
22635;DHT22;11484;50.858;4.384;2024-01-30T03:27:08;12.80;99.90
22635;DHT22;11484;50.858;4.384;2024-01-30T03:29:34;12.80;99.90
22635;DHT22;11484;50.858;4.384;2024-01-30T03:32:00;12.70;99.90
22635;DHT22;11484;50.858;4.384;2024-01-30T03:34:26;12.80;99.90
22635;DHT22;11484;50.858;4.384;2024-01-30T03:36:51;12.90;99.90
22635;DHT22;11484;50.858;4.384;2024-01-30T03:39:17;12.90;99.90
22635;DHT22;11484;50.858;4.384;2024-01-30T03:41:43;12.90;99.90
22635;DHT22;11484;50.858;4.384;2024-01-30T03:44:09;13.00;99.90
22635;DHT22;11484;50.858;4.384;2024-01-30T03:46:35;13.10;99.90
22635;DHT22;11484;50.858;4.384;2024-01-30T03:49:01;13.10;99.90
22635;DHT22;11484;50.858;4.384;2024-01-30T03:51:26;13.10;99.90
22635;DHT22;11484;50.858;4.384;2024-01-30T03:53:52;13.10;99.90
22635;DHT22;11484;50.858;4.384;2024-01-30T03:56:18;13.10;99.90
22635;DHT22;11484;50.858;4.384;2024-01-30T03:58:44;13.00;99.90
22635;DHT22;11484;50.858;4.384;2024-01-30T04:01:13;13.00;99.90
22635;DHT22;11484;50.858;4.384;2024-01-30T04:03:40;12.90;99.90
22635;DHT22;11484;50.858;4.384;2024-01-30T04:06:06;12.90;99.90
22635;DHT22;11484;50.858;4.384;2024-01-30T04:08:31;12.90;99.90
22635;DHT22;11484;50.858;4.384;2024-01-30T04:10:58;12.90;99.90
22635;DHT22;11484;50.858;4.384;2024-01-30T04:13:23;12.90;99.90
22635;DHT22;11484;50.858;4.384;2024-01-30T04:15:49;12.80;99.90
22635;DHT22;11484;50.858;4.384;2024-01-30T04:18:14;12.70;99.90
22635;DHT22;11484;50.858;4.384;2024-01-30T04:20:40;12.70;99.90
22635;DHT22;11484;50.858;4.384;2024-01-30T04:23:06;12.70;99.90
22635;DHT22;11484;50.858;4.384;2024-01-30T04:25:31;12.70;99.90
22635;DHT22;11484;50.858;4.384;2024-01-30T04:27:57;12.70;99.90
22635;DHT22;11484;50.858;4.384;2024-01-30T04:30:23;12.70;99.90
22635;DHT22;11484;50.858;4.384;2024-01-30T04:32:48;12.70;99.90
22635;DHT22;11484;50.858;4.384;2024-01-30T04:35:15;12.70;99.90
22635;DHT22;11484;50.858;4.384;2024-01-30T04:37:41;12.70;99.90
22635;DHT22;11484;50.858;4.384;2024-01-30T04:40:07;12.70;99.90
22635;DHT22;11484;50.858;4.384;2024-01-30T04:42:33;12.70;99.90
22635;DHT22;11484;50.858;4.384;2024-01-30T04:44:59;12.70;99.90
22635;DHT22;11484;50.858;4.384;2024-01-30T04:47:24;12.70;99.90
22635;DHT22;11484;50.858;4.384;2024-01-30T04:49:51;12.90;99.90
22635;DHT22;11484;50.858;4.384;2024-01-30T04:52:17;12.90;99.90
22635;DHT22;11484;50.858;4.384;2024-01-30T04:54:42;13.00;99.90
22635;DHT22;11484;50.858;4.384;2024-01-30T04:57:08;13.00;99.90
22635;DHT22;11484;50.858;4.384;2024-01-30T04:59:37;13.00;99.90
22635;DHT22;11484;50.858;4.384;2024-01-30T05:02:03;13.00;99.90
22635;DHT22;11484;50.858;4.384;2024-01-30T05:04:28;13.10;99.90
22635;DHT22;11484;50.858;4.384;2024-01-30T05:06:54;13.20;99.90
22635;DHT22;11484;50.858;4.384;2024-01-30T05:09:20;13.30;99.90
22635;DHT22;11484;50.858;4.384;2024-01-30T05:11:46;13.30;99.90
22635;DHT22;11484;50.858;4.384;2024-01-30T05:14:11;13.40;99.90
22635;DHT22;11484;50.858;4.384;2024-01-30T05:16:37;13.40;99.90
22635;DHT22;11484;50.858;4.384;2024-01-30T05:19:03;13.40;99.90
22635;DHT22;11484;50.858;4.384;2024-01-30T05:21:29;13.30;99.90
22635;DHT22;11484;50.858;4.384;2024-01-30T05:23:54;13.30;99.90
22635;DHT22;11484;50.858;4.384;2024-01-30T05:26:20;13.30;99.90
22635;DHT22;11484;50.858;4.384;2024-01-30T05:28:48;13.30;99.90
22635;DHT22;11484;50.858;4.384;2024-01-30T05:31:14;13.30;99.90
22635;DHT22;11484;50.858;4.384;2024-01-30T05:33:40;13.20;99.90
22635;DHT22;11484;50.858;4.384;2024-01-30T05:36:06;13.20;99.90
22635;DHT22;11484;50.858;4.384;2024-01-30T05:38:32;13.30;99.90
22635;DHT22;11484;50.858;4.384;2024-01-30T05:40:58;13.20;99.90
22635;DHT22;11484;50.858;4.384;2024-01-30T05:43:24;13.10;99.90
22635;DHT22;11484;50.858;4.384;2024-01-30T05:45:50;13.10;99.90
22635;DHT22;11484;50.858;4.384;2024-01-30T05:48:18;13.00;99.90
22635;DHT22;11484;50.858;4.384;2024-01-30T05:50:44;13.00;99.90
22635;DHT22;11484;50.858;4.384;2024-01-30T05:53:11;13.10;99.90
22635;DHT22;11484;50.858;4.384;2024-01-30T05:55:36;13.00;99.90
22635;DHT22;11484;50.858;4.384;2024-01-30T05:58:02;13.00;99.90
22635;DHT22;11484;50.858;4.384;2024-01-30T06:00:28;12.90;99.90
22635;DHT22;11484;50.858;4.384;2024-01-30T06:02:54;12.90;99.90
22635;DHT22;11484;50.858;4.384;2024-01-30T06:05:19;12.80;99.90
22635;DHT22;11484;50.858;4.384;2024-01-30T06:07:45;12.70;99.90
22635;DHT22;11484;50.858;4.384;2024-01-30T06:10:10;12.70;99.90
22635;DHT22;11484;50.858;4.384;2024-01-30T06:12:37;12.80;99.90
22635;DHT22;11484;50.858;4.384;2024-01-30T06:15:03;12.70;99.90
22635;DHT22;11484;50.858;4.384;2024-01-30T06:17:29;12.80;99.90
22635;DHT22;11484;50.858;4.384;2024-01-30T06:19:55;12.70;99.90
22635;DHT22;11484;50.858;4.384;2024-01-30T06:22:20;12.70;99.90
22635;DHT22;11484;50.858;4.384;2024-01-30T06:24:46;12.70;99.90
22635;DHT22;11484;50.858;4.384;2024-01-30T06:27:14;12.60;99.90
22635;DHT22;11484;50.858;4.384;2024-01-30T06:29:41;12.60;99.90
22635;DHT22;11484;50.858;4.384;2024-01-30T06:32:08;12.70;99.90
22635;DHT22;11484;50.858;4.384;2024-01-30T06:34:33;12.70;99.90
22635;DHT22;11484;50.858;4.384;2024-01-30T06:36:59;12.70;99.90
22635;DHT22;11484;50.858;4.384;2024-01-30T06:39:25;12.70;99.90
22635;DHT22;11484;50.858;4.384;2024-01-30T06:41:51;12.80;99.90
22635;DHT22;11484;50.858;4.384;2024-01-30T06:44:17;12.70;99.90
22635;DHT22;11484;50.858;4.384;2024-01-30T06:46:43;12.70;99.90
22635;DHT22;11484;50.858;4.384;2024-01-30T06:49:09;12.60;99.90
22635;DHT22;11484;50.858;4.384;2024-01-30T06:51:34;12.70;99.90
22635;DHT22;11484;50.858;4.384;2024-01-30T06:54:00;12.70;99.90
22635;DHT22;11484;50.858;4.384;2024-01-30T06:56:25;12.70;99.90
22635;DHT22;11484;50.858;4.384;2024-01-30T06:58:51;12.80;99.90
22635;DHT22;11484;50.858;4.384;2024-01-30T07:01:17;12.80;99.90
22635;DHT22;11484;50.858;4.384;2024-01-30T07:03:43;12.90;99.90
22635;DHT22;11484;50.858;4.384;2024-01-30T07:06:09;12.70;99.90
22635;DHT22;11484;50.858;4.384;2024-01-30T07:08:37;12.70;99.90
22635;DHT22;11484;50.858;4.384;2024-01-30T07:11:06;12.70;99.90
22635;DHT22;11484;50.858;4.384;2024-01-30T07:13:34;12.70;99.90
22635;DHT22;11484;50.858;4.384;2024-01-30T07:15:59;12.80;99.90
22635;DHT22;11484;50.858;4.384;2024-01-30T07:18:25;12.80;99.90
22635;DHT22;11484;50.858;4.384;2024-01-30T07:20:52;12.90;99.90
22635;DHT22;11484;50.858;4.384;2024-01-30T07:23:18;12.90;99.90
22635;DHT22;11484;50.858;4.384;2024-01-30T07:25:44;13.00;99.90
22635;DHT22;11484;50.858;4.384;2024-01-30T07:28:18;12.90;99.90
22635;DHT22;11484;50.858;4.384;2024-01-30T07:30:44;12.90;99.90
22635;DHT22;11484;50.858;4.384;2024-01-30T07:33:10;13.00;99.90
22635;DHT22;11484;50.858;4.384;2024-01-30T07:35:36;13.00;99.90
22635;DHT22;11484;50.858;4.384;2024-01-30T07:38:02;13.10;99.90
22635;DHT22;11484;50.858;4.384;2024-01-30T07:40:28;13.20;99.90
22635;DHT22;11484;50.858;4.384;2024-01-30T07:42:54;13.10;99.90
22635;DHT22;11484;50.858;4.384;2024-01-30T07:45:20;13.00;99.90
22635;DHT22;11484;50.858;4.384;2024-01-30T07:47:51;13.00;99.90
22635;DHT22;11484;50.858;4.384;2024-01-30T07:50:17;13.10;99.90
22635;DHT22;11484;50.858;4.384;2024-01-30T07:52:43;13.20;99.90
22635;DHT22;11484;50.858;4.384;2024-01-30T07:55:09;13.20;99.90
22635;DHT22;11484;50.858;4.384;2024-01-30T07:57:35;13.20;99.90
22635;DHT22;11484;50.858;4.384;2024-01-30T08:00:01;13.20;99.90
22635;DHT22;11484;50.858;4.384;2024-01-30T08:02:28;13.10;99.90
22635;DHT22;11484;50.858;4.384;2024-01-30T08:04:54;13.10;99.90
22635;DHT22;11484;50.858;4.384;2024-01-30T08:07:20;13.10;99.90
22635;DHT22;11484;50.858;4.384;2024-01-30T08:09:47;13.00;99.90
22635;DHT22;11484;50.858;4.384;2024-01-30T08:12:13;13.00;99.90
22635;DHT22;11484;50.858;4.384;2024-01-30T08:14:39;13.00;99.90
22635;DHT22;11484;50.858;4.384;2024-01-30T08:17:06;13.00;99.90
22635;DHT22;11484;50.858;4.384;2024-01-30T08:19:33;13.00;99.90
22635;DHT22;11484;50.858;4.384;2024-01-30T08:21:59;13.10;99.90
22635;DHT22;11484;50.858;4.384;2024-01-30T08:24:25;13.00;99.90
22635;DHT22;11484;50.858;4.384;2024-01-30T08:26:50;13.00;99.90
22635;DHT22;11484;50.858;4.384;2024-01-30T08:29:16;13.00;99.90
22635;DHT22;11484;50.858;4.384;2024-01-30T08:31:42;13.00;99.90
22635;DHT22;11484;50.858;4.384;2024-01-30T08:34:08;13.00;99.90
22635;DHT22;11484;50.858;4.384;2024-01-30T08:36:33;12.90;99.90
22635;DHT22;11484;50.858;4.384;2024-01-30T08:38:59;13.00;99.90
22635;DHT22;11484;50.858;4.384;2024-01-30T08:41:25;13.10;99.90
22635;DHT22;11484;50.858;4.384;2024-01-30T08:43:52;13.20;99.90
22635;DHT22;11484;50.858;4.384;2024-01-30T08:46:18;13.30;99.90
22635;DHT22;11484;50.858;4.384;2024-01-30T08:48:44;13.20;99.90
22635;DHT22;11484;50.858;4.384;2024-01-30T08:51:10;13.30;99.90
22635;DHT22;11484;50.858;4.384;2024-01-30T08:53:36;13.50;99.90
22635;DHT22;11484;50.858;4.384;2024-01-30T08:56:03;13.50;99.90
22635;DHT22;11484;50.858;4.384;2024-01-30T08:58:29;13.50;99.90
22635;DHT22;11484;50.858;4.384;2024-01-30T09:00:54;13.60;99.90
22635;DHT22;11484;50.858;4.384;2024-01-30T09:03:20;13.60;99.90
22635;DHT22;11484;50.858;4.384;2024-01-30T09:05:46;13.60;99.90
22635;DHT22;11484;50.858;4.384;2024-01-30T09:08:11;13.60;99.90
22635;DHT22;11484;50.858;4.384;2024-01-30T09:10:37;13.60;99.90
22635;DHT22;11484;50.858;4.384;2024-01-30T09:13:03;13.60;99.90
22635;DHT22;11484;50.858;4.384;2024-01-30T09:15:29;13.50;99.90
22635;DHT22;11484;50.858;4.384;2024-01-30T09:17:54;13.50;99.90
22635;DHT22;11484;50.858;4.384;2024-01-30T09:20:20;13.60;99.90
22635;DHT22;11484;50.858;4.384;2024-01-30T09:22:47;13.60;99.90
22635;DHT22;11484;50.858;4.384;2024-01-30T09:25:14;13.60;99.90
22635;DHT22;11484;50.858;4.384;2024-01-30T09:27:41;13.60;99.90
22635;DHT22;11484;50.858;4.384;2024-01-30T09:30:07;13.60;99.90
22635;DHT22;11484;50.858;4.384;2024-01-30T09:32:33;13.50;99.90
22635;DHT22;11484;50.858;4.384;2024-01-30T09:34:59;13.60;99.90
22635;DHT22;11484;50.858;4.384;2024-01-30T09:37:24;13.60;99.90
22635;DHT22;11484;50.858;4.384;2024-01-30T09:39:50;13.60;99.90
22635;DHT22;11484;50.858;4.384;2024-01-30T09:42:30;13.70;99.90
22635;DHT22;11484;50.858;4.384;2024-01-30T09:44:59;13.70;99.90
22635;DHT22;11484;50.858;4.384;2024-01-30T09:47:26;13.60;99.90
22635;DHT22;11484;50.858;4.384;2024-01-30T09:49:51;13.50;99.90
22635;DHT22;11484;50.858;4.384;2024-01-30T09:52:17;13.60;99.90
22635;DHT22;11484;50.858;4.384;2024-01-30T09:54:45;13.50;99.90
22635;DHT22;11484;50.858;4.384;2024-01-30T09:57:11;13.50;99.90
22635;DHT22;11484;50.858;4.384;2024-01-30T09:59:37;13.50;99.90
22635;DHT22;11484;50.858;4.384;2024-01-30T10:02:03;13.50;99.90
22635;DHT22;11484;50.858;4.384;2024-01-30T10:04:30;13.60;99.90
22635;DHT22;11484;50.858;4.384;2024-01-30T10:06:56;13.60;99.90
22635;DHT22;11484;50.858;4.384;2024-01-30T10:09:24;13.50;99.90
22635;DHT22;11484;50.858;4.384;2024-01-30T10:11:51;13.50;99.90
22635;DHT22;11484;50.858;4.384;2024-01-30T10:14:17;13.60;99.90
22635;DHT22;11484;50.858;4.384;2024-01-30T10:16:42;13.60;99.90
22635;DHT22;11484;50.858;4.384;2024-01-30T10:19:10;13.60;99.90
22635;DHT22;11484;50.858;4.384;2024-01-30T10:21:36;13.50;99.90
22635;DHT22;11484;50.858;4.384;2024-01-30T10:24:02;13.30;99.90
22635;DHT22;11484;50.858;4.384;2024-01-30T10:26:29;13.40;99.90
22635;DHT22;11484;50.858;4.384;2024-01-30T10:28:58;13.30;99.90
22635;DHT22;11484;50.858;4.384;2024-01-30T10:31:24;13.50;99.90
22635;DHT22;11484;50.858;4.384;2024-01-30T10:33:50;13.40;99.90
22635;DHT22;11484;50.858;4.384;2024-01-30T10:36:17;13.30;99.90
22635;DHT22;11484;50.858;4.384;2024-01-30T10:38:43;13.30;99.90
22635;DHT22;11484;50.858;4.384;2024-01-30T10:41:13;13.30;99.90
22635;DHT22;11484;50.858;4.384;2024-01-30T10:43:41;13.40;99.90
22635;DHT22;11484;50.858;4.384;2024-01-30T10:48:43;13.50;99.90
22635;DHT22;11484;50.858;4.384;2024-01-30T10:51:11;13.50;99.90
22635;DHT22;11484;50.858;4.384;2024-01-30T10:53:38;13.60;99.90
22635;DHT22;11484;50.858;4.384;2024-01-30T10:56:05;13.60;99.90
22635;DHT22;11484;50.858;4.384;2024-01-30T10:58:31;13.60;99.90
22635;DHT22;11484;50.858;4.384;2024-01-30T11:00:57;13.40;99.90
22635;DHT22;11484;50.858;4.384;2024-01-30T11:03:24;13.30;99.90
22635;DHT22;11484;50.858;4.384;2024-01-30T11:05:52;13.30;99.90
22635;DHT22;11484;50.858;4.384;2024-01-30T11:08:24;13.40;99.90
22635;DHT22;11484;50.858;4.384;2024-01-30T11:10:57;13.40;99.90
22635;DHT22;11484;50.858;4.384;2024-01-30T11:13:30;13.50;99.90
22635;DHT22;11484;50.858;4.384;2024-01-30T11:16:03;13.50;99.90
22635;DHT22;11484;50.858;4.384;2024-01-30T11:18:30;13.40;99.90
22635;DHT22;11484;50.858;4.384;2024-01-30T11:20:56;13.30;99.90
22635;DHT22;11484;50.858;4.384;2024-01-30T11:23:23;13.20;99.90
22635;DHT22;11484;50.858;4.384;2024-01-30T11:25:48;13.20;99.90
22635;DHT22;11484;50.858;4.384;2024-01-30T11:28:15;13.10;99.90
22635;DHT22;11484;50.858;4.384;2024-01-30T11:30:44;13.20;99.90
22635;DHT22;11484;50.858;4.384;2024-01-30T11:33:12;13.30;99.90
22635;DHT22;11484;50.858;4.384;2024-01-30T11:35:39;13.30;99.90
22635;DHT22;11484;50.858;4.384;2024-01-30T11:38:07;13.10;99.90
22635;DHT22;11484;50.858;4.384;2024-01-30T11:40:34;13.00;99.90
22635;DHT22;11484;50.858;4.384;2024-01-30T11:43:02;13.00;99.90
22635;DHT22;11484;50.858;4.384;2024-01-30T11:45:28;13.00;99.90
22635;DHT22;11484;50.858;4.384;2024-01-30T11:47:55;13.00;99.90
22635;DHT22;11484;50.858;4.384;2024-01-30T11:50:21;13.00;99.90
22635;DHT22;11484;50.858;4.384;2024-01-30T11:52:47;13.10;99.90
22635;DHT22;11484;50.858;4.384;2024-01-30T11:55:14;13.20;99.90
22635;DHT22;11484;50.858;4.384;2024-01-30T11:57:40;13.30;99.90
22635;DHT22;11484;50.858;4.384;2024-01-30T12:00:13;13.30;99.90
22635;DHT22;11484;50.858;4.384;2024-01-30T12:02:40;13.40;99.90
22635;DHT22;11484;50.858;4.384;2024-01-30T12:05:08;13.50;99.90
22635;DHT22;11484;50.858;4.384;2024-01-30T12:07:34;13.70;99.90
22635;DHT22;11484;50.858;4.384;2024-01-30T12:10:00;13.70;99.90
22635;DHT22;11484;50.858;4.384;2024-01-30T12:12:27;13.60;99.90
22635;DHT22;11484;50.858;4.384;2024-01-30T12:14:54;13.70;99.90
22635;DHT22;11484;50.858;4.384;2024-01-30T12:17:31;13.70;99.90
22635;DHT22;11484;50.858;4.384;2024-01-30T12:20:23;13.80;99.90
22635;DHT22;11484;50.858;4.384;2024-01-30T12:22:49;13.80;99.90
22635;DHT22;11484;50.858;4.384;2024-01-30T12:25:20;13.70;99.90
22635;DHT22;11484;50.858;4.384;2024-01-30T12:27:47;13.60;99.90
22635;DHT22;11484;50.858;4.384;2024-01-30T12:30:16;13.50;99.90
22635;DHT22;11484;50.858;4.384;2024-01-30T12:32:45;13.40;99.90
22635;DHT22;11484;50.858;4.384;2024-01-30T12:35:12;13.50;99.90
22635;DHT22;11484;50.858;4.384;2024-01-30T12:37:39;13.40;99.90
22635;DHT22;11484;50.858;4.384;2024-01-30T12:40:05;13.50;99.90
22635;DHT22;11484;50.858;4.384;2024-01-30T12:42:31;13.60;99.90
22635;DHT22;11484;50.858;4.384;2024-01-30T12:45:02;13.60;99.90
22635;DHT22;11484;50.858;4.384;2024-01-30T12:47:28;13.60;99.90
22635;DHT22;11484;50.858;4.384;2024-01-30T12:49:54;13.60;99.90
22635;DHT22;11484;50.858;4.384;2024-01-30T12:52:22;13.70;99.90
22635;DHT22;11484;50.858;4.384;2024-01-30T12:54:49;13.80;99.90
22635;DHT22;11484;50.858;4.384;2024-01-30T12:57:15;13.80;99.90
22635;DHT22;11484;50.858;4.384;2024-01-30T12:59:42;13.90;99.90
22635;DHT22;11484;50.858;4.384;2024-01-30T13:02:08;14.00;99.90
22635;DHT22;11484;50.858;4.384;2024-01-30T13:04:34;14.00;99.90
22635;DHT22;11484;50.858;4.384;2024-01-30T13:07:00;13.90;99.90
22635;DHT22;11484;50.858;4.384;2024-01-30T13:09:29;13.90;99.90
22635;DHT22;11484;50.858;4.384;2024-01-30T13:11:54;13.80;99.90
22635;DHT22;11484;50.858;4.384;2024-01-30T13:14:20;13.80;99.90
22635;DHT22;11484;50.858;4.384;2024-01-30T13:16:46;13.80;99.90
22635;DHT22;11484;50.858;4.384;2024-01-30T13:19:12;13.70;99.90
22635;DHT22;11484;50.858;4.384;2024-01-30T13:21:38;13.90;99.90
22635;DHT22;11484;50.858;4.384;2024-01-30T13:24:04;13.90;99.90
22635;DHT22;11484;50.858;4.384;2024-01-30T13:26:32;13.90;99.90
22635;DHT22;11484;50.858;4.384;2024-01-30T13:28:58;13.80;99.90
22635;DHT22;11484;50.858;4.384;2024-01-30T13:31:24;13.90;99.90
22635;DHT22;11484;50.858;4.384;2024-01-30T13:33:52;13.90;99.90
22635;DHT22;11484;50.858;4.384;2024-01-30T13:36:17;13.80;99.90
22635;DHT22;11484;50.858;4.384;2024-01-30T13:39:03;13.60;99.90
22635;DHT22;11484;50.858;4.384;2024-01-30T13:41:32;13.40;99.90
22635;DHT22;11484;50.858;4.384;2024-01-30T13:43:58;13.30;99.90
22635;DHT22;11484;50.858;4.384;2024-01-30T13:46:24;13.30;99.90
22635;DHT22;11484;50.858;4.384;2024-01-30T13:48:50;13.30;99.90
22635;DHT22;11484;50.858;4.384;2024-01-30T13:51:18;13.20;99.90
22635;DHT22;11484;50.858;4.384;2024-01-30T13:53:43;13.10;99.90
22635;DHT22;11484;50.858;4.384;2024-01-30T13:56:10;13.10;99.90
22635;DHT22;11484;50.858;4.384;2024-01-30T13:58:36;13.10;99.90
22635;DHT22;11484;50.858;4.384;2024-01-30T14:01:02;13.00;99.90
22635;DHT22;11484;50.858;4.384;2024-01-30T14:03:28;13.00;99.90
22635;DHT22;11484;50.858;4.384;2024-01-30T14:05:54;12.90;99.90
22635;DHT22;11484;50.858;4.384;2024-01-30T14:08:20;13.00;99.90
22635;DHT22;11484;50.858;4.384;2024-01-30T14:10:49;12.90;99.90
22635;DHT22;11484;50.858;4.384;2024-01-30T14:13:15;12.90;99.90
22635;DHT22;11484;50.858;4.384;2024-01-30T14:15:40;12.90;99.90
22635;DHT22;11484;50.858;4.384;2024-01-30T14:18:06;12.70;99.90
22635;DHT22;11484;50.858;4.384;2024-01-30T14:20:34;12.60;99.90
22635;DHT22;11484;50.858;4.384;2024-01-30T14:23:00;12.60;99.90
22635;DHT22;11484;50.858;4.384;2024-01-30T14:25:26;12.60;99.90
22635;DHT22;11484;50.858;4.384;2024-01-30T14:27:52;12.50;99.90
22635;DHT22;11484;50.858;4.384;2024-01-30T14:30:17;12.60;99.90
22635;DHT22;11484;50.858;4.384;2024-01-30T14:32:43;12.60;99.90
22635;DHT22;11484;50.858;4.384;2024-01-30T14:35:11;12.60;99.90
22635;DHT22;11484;50.858;4.384;2024-01-30T14:37:38;12.60;99.90
22635;DHT22;11484;50.858;4.384;2024-01-30T14:40:04;12.50;99.90
22635;DHT22;11484;50.858;4.384;2024-01-30T14:42:32;12.40;99.90
22635;DHT22;11484;50.858;4.384;2024-01-30T14:44:58;12.30;99.90
22635;DHT22;11484;50.858;4.384;2024-01-30T14:47:25;12.20;99.90
22635;DHT22;11484;50.858;4.384;2024-01-30T14:49:51;12.20;99.90
22635;DHT22;11484;50.858;4.384;2024-01-30T14:52:18;12.20;99.90
22635;DHT22;11484;50.858;4.384;2024-01-30T14:54:44;12.20;99.90
22635;DHT22;11484;50.858;4.384;2024-01-30T14:57:10;12.20;99.90
22635;DHT22;11484;50.858;4.384;2024-01-30T14:59:36;12.20;99.90
22635;DHT22;11484;50.858;4.384;2024-01-30T15:02:02;12.20;99.90
22635;DHT22;11484;50.858;4.384;2024-01-30T15:04:29;12.10;99.90
22635;DHT22;11484;50.858;4.384;2024-01-30T15:06:55;12.10;99.90
22635;DHT22;11484;50.858;4.384;2024-01-30T15:09:21;12.00;99.90
22635;DHT22;11484;50.858;4.384;2024-01-30T15:11:48;11.90;99.90
22635;DHT22;11484;50.858;4.384;2024-01-30T15:14:14;11.90;99.90
22635;DHT22;11484;50.858;4.384;2024-01-30T15:16:40;11.90;99.90
22635;DHT22;11484;50.858;4.384;2024-01-30T15:19:06;11.90;99.90
22635;DHT22;11484;50.858;4.384;2024-01-30T15:21:32;11.80;99.90
22635;DHT22;11484;50.858;4.384;2024-01-30T15:23:58;11.80;99.90
22635;DHT22;11484;50.858;4.384;2024-01-30T15:26:24;11.80;99.90
22635;DHT22;11484;50.858;4.384;2024-01-30T15:28:50;11.80;99.90